Weather History for Fort Yukon, AK

Change the Weather History Date:

Tuesday, June 25, 2013

  Actual Average Record
Temperature  
Mean Temperature 66 °F -  
Max Temperature 75 °F 69 °F 82 °F (2011)
Min Temperature 57 °F 50 °F 46 °F (2002)
Cooling Degree Days 1    
Growing Degree Days 16 (Base 50)    
Moisture  
Dew Point 49 °F    
Average Humidity 51    
Maximum Humidity 67    
Minimum Humidity 33    
Precipitation  
Precipitation 0.00 in - - ()
Sea Level Pressure  
Sea Level Pressure 29.79 in    
Wind  
Wind Speed 12 mph (NE)    
Max Wind Speed 15 mph    
Max Gust Speed 22 mph    
Visibility 10 miles    
Events      
Averages and records for this station are not official NWS values.
T = Trace of Precipitation, MM = Missing Value Source: NWS Daily Summary

Daily Weather History Graph

Daily Weather History Graph

Search for Another Location

Airport:

Trip Planner

Search our weather history database for the weather conditions in past years. The results will help you decide how hot, cold, wet, or windy it might be!

Date:

Astronomy

Jun. 25, 2013 Rise Set
Actual Time 2:16 AM AKDT 1:11 AM AKDT
Civil Twilight Sun does not rise Sun does not rise
Nautical Twilight Sun does not rise Sun does not rise
Astronomical Twilight Sun does not rise Sun does not rise
Moon 12:10 AM AKDT (6/25) 7:25 AM AKDT (6/25)
Length of Visible Light 24h 00m
Length of Day
22h 55m
Waning Gibbous, 92% of the Moon is Illuminated
Jun 25
Waning Gibbous
Jun 29
Last Quarter
Jul 7
New
Jul 15
First Quarter
Jul 22
Full

Hourly Weather History & Observations

Time (AKDT) Temp. Dew Point Humidity Pressure Visibility Wind Dir Wind Speed Gust Speed Precip Events Conditions
12:16 AM 69.8 °F 51.8 °F 53% 29.73 in 10.0 mi NE 15.0 mph 20.7 mph N/A   Clear
12:36 AM 69.8 °F 51.8 °F 53% 29.74 in 10.0 mi NE 10.4 mph 16.1 mph N/A   Clear
12:56 AM 68.0 °F 51.8 °F 56% 29.74 in 10.0 mi NE 12.7 mph - N/A   Clear
1:16 AM 66.2 °F 50.0 °F 56% 29.75 in 10.0 mi NE 10.4 mph 18.4 mph N/A   Clear
1:36 AM 64.4 °F 48.2 °F 56% 29.75 in 10.0 mi NE 10.4 mph - N/A   Clear
1:56 AM 64.4 °F 48.2 °F 56% 29.76 in 10.0 mi NE 13.8 mph 21.9 mph N/A   Clear
2:16 AM 64.4 °F 48.2 °F 56% 29.76 in 10.0 mi NE 12.7 mph 21.9 mph N/A   Clear
2:36 AM 62.6 °F 48.2 °F 59% 29.76 in 10.0 mi NE 12.7 mph 17.3 mph N/A   Clear
2:56 AM 62.6 °F 48.2 °F 59% 29.77 in 10.0 mi NE 12.7 mph 19.6 mph N/A   Clear
3:16 AM 60.8 °F 48.2 °F 63% 29.77 in 10.0 mi NE 13.8 mph 20.7 mph N/A   Clear
3:36 AM 60.8 °F 46.4 °F 59% 29.78 in 10.0 mi NE 12.7 mph 20.7 mph N/A   Clear
3:56 AM 59.0 °F 46.4 °F 63% 29.78 in 10.0 mi NE 12.7 mph 21.9 mph N/A   Clear
4:16 AM 59.0 °F 46.4 °F 63% 29.79 in 10.0 mi NE 15.0 mph 21.9 mph N/A   Clear
4:36 AM 57.2 °F 46.4 °F 67% 29.79 in 10.0 mi NE 13.8 mph 18.4 mph N/A   Clear
4:56 AM 57.2 °F 46.4 °F 67% 29.79 in 10.0 mi NE 12.7 mph 18.4 mph N/A   Clear
5:36 AM 57.2 °F 46.4 °F 67% 29.80 in 10.0 mi NE 11.5 mph 18.4 mph N/A   Clear
5:56 AM 57.2 °F 46.4 °F 67% 29.81 in 10.0 mi NE 11.5 mph 17.3 mph N/A   Clear
6:16 AM 57.2 °F 46.4 °F 67% 29.81 in 10.0 mi NE 11.5 mph 19.6 mph N/A   Clear
6:36 AM 57.2 °F 44.6 °F 63% 29.81 in 10.0 mi ENE 8.1 mph 20.7 mph N/A   Clear
6:56 AM 57.2 °F 44.6 °F 63% 29.81 in 10.0 mi NE 13.8 mph 19.6 mph N/A   Clear
7:16 AM 59.0 °F 44.6 °F 59% 29.82 in 10.0 mi NE 13.8 mph 18.4 mph N/A   Clear
7:36 AM 59.0 °F 46.4 °F 63% 29.82 in 10.0 mi NE 11.5 mph 18.4 mph N/A   Clear
7:56 AM 60.8 °F 44.6 °F 55% 29.82 in 10.0 mi NE 13.8 mph 19.6 mph N/A   Clear
8:16 AM 60.8 °F 46.4 °F 59% 29.83 in 10.0 mi NE 12.7 mph - N/A   Clear
8:36 AM 60.8 °F 46.4 °F 59% 29.83 in 10.0 mi NE 11.5 mph 17.3 mph N/A   Clear
8:56 AM 62.6 °F 46.4 °F 55% 29.83 in 10.0 mi NE 12.7 mph 17.3 mph N/A   Clear
9:16 AM 62.6 °F 46.4 °F 55% 29.83 in 10.0 mi NNE 10.4 mph 16.1 mph N/A   Clear
9:36 AM 64.4 °F 46.4 °F 52% 29.83 in 10.0 mi NE 11.5 mph 16.1 mph N/A   Clear
9:56 AM 64.4 °F 46.4 °F 52% 29.83 in 10.0 mi NE 10.4 mph - N/A   Clear
10:16 AM 64.4 °F 48.2 °F 56% 29.82 in 10.0 mi NE 13.8 mph - N/A   Clear
10:36 AM 66.2 °F 48.2 °F 52% 29.83 in 10.0 mi NE 12.7 mph 16.1 mph N/A   Clear
10:56 AM 66.2 °F 48.2 °F 52% 29.83 in 10.0 mi NNE 9.2 mph 16.1 mph N/A   Clear
11:16 AM 66.2 °F 48.2 °F 52% 29.82 in 10.0 mi NE 10.4 mph 18.4 mph N/A   Clear
11:36 AM 68.0 °F 48.2 °F 49% 29.82 in 10.0 mi NE 11.5 mph - N/A   Clear
11:56 AM 69.8 °F 48.2 °F 46% 29.81 in 10.0 mi NE 12.7 mph 17.3 mph N/A   Clear
12:16 PM 69.8 °F 50.0 °F 49% 29.82 in 10.0 mi NE 13.8 mph 18.4 mph N/A   Clear
12:36 PM 69.8 °F 48.2 °F 46% 29.82 in 10.0 mi NE 11.5 mph 17.3 mph N/A   Clear
12:56 PM 71.6 °F 50.0 °F 46% 29.82 in 10.0 mi ENE 10.4 mph - N/A   Clear
1:16 PM 71.6 °F 50.0 °F 46% 29.81 in 10.0 mi NE 15.0 mph 18.4 mph N/A   Clear
1:36 PM 73.4 °F 50.0 °F 44% 29.81 in 10.0 mi NE 11.5 mph 17.3 mph N/A   Clear
1:56 PM 73.4 °F 50.0 °F 44% 29.81 in 10.0 mi ENE 11.5 mph 19.6 mph N/A   Clear
2:16 PM 73.4 °F 50.0 °F 44% 29.81 in 10.0 mi ENE 8.1 mph 16.1 mph N/A   Clear
2:36 PM 73.4 °F 51.8 °F 47% 29.80 in 10.0 mi NE 13.8 mph 18.4 mph N/A   Clear
2:56 PM 75.2 °F 51.8 °F 44% 29.80 in 10.0 mi NE 12.7 mph 18.4 mph N/A   Clear
3:16 PM 75.2 °F 50.0 °F 41% 29.80 in 10.0 mi NE 10.4 mph 19.6 mph N/A   Clear
3:36 PM 75.2 °F 51.8 °F 44% 29.79 in 10.0 mi ENE 10.4 mph 16.1 mph N/A   Clear
3:56 PM 75.2 °F 51.8 °F 44% 29.79 in 10.0 mi ENE 9.2 mph - N/A   Clear
4:16 PM 75.2 °F 51.8 °F 44% 29.79 in 10.0 mi NE 13.8 mph 17.3 mph N/A   Clear
4:36 PM 75.2 °F 51.8 °F 44% 29.78 in 10.0 mi NE 13.8 mph 18.4 mph N/A   Clear
4:56 PM 75.2 °F 51.8 °F 44% 29.78 in 10.0 mi NE 12.7 mph 17.3 mph N/A   Clear
5:16 PM 75.2 °F 50.0 °F 41% 29.78 in 10.0 mi NNE 13.8 mph 19.6 mph N/A   Clear
5:36 PM 75.2 °F 50.0 °F 41% 29.78 in 10.0 mi NE 15.0 mph 18.4 mph N/A   Clear
5:56 PM 75.2 °F 50.0 °F 41% 29.77 in 10.0 mi NE 13.8 mph 17.3 mph N/A   Clear
6:16 PM 75.2 °F 50.0 °F 41% 29.77 in 10.0 mi NE 12.7 mph 16.1 mph N/A   Clear
6:36 PM 75.2 °F 50.0 °F 41% 29.77 in 10.0 mi NE 12.7 mph - N/A   Clear
6:56 PM 75.2 °F 50.0 °F 41% 29.77 in 10.0 mi ENE 10.4 mph 16.1 mph N/A   Clear
7:16 PM 75.2 °F 50.0 °F 41% 29.77 in 10.0 mi NE 11.5 mph 17.3 mph N/A   Clear
7:36 PM 75.2 °F 51.8 °F 44% 29.76 in 9.0 mi ENE 8.1 mph - N/A   Clear
7:56 PM 75.2 °F 50.0 °F 41% 29.76 in 10.0 mi ENE 8.1 mph - N/A   Clear
8:16 PM 75.2 °F 50.0 °F 41% 29.76 in 10.0 mi NE 9.2 mph - N/A   Clear
8:36 PM 75.2 °F 50.0 °F 41% 29.76 in 10.0 mi NE 10.4 mph - N/A   Clear
8:56 PM 73.4 °F 51.8 °F 47% 29.76 in 10.0 mi NE 11.5 mph - N/A   Clear
9:16 PM 73.4 °F 51.8 °F 47% 29.76 in 10.0 mi NNE 9.2 mph - N/A   Clear
9:36 PM 73.4 °F 51.8 °F 47% 29.76 in 10.0 mi NE 10.4 mph - N/A   Clear
9:56 PM 73.4 °F 50.0 °F 44% 29.76 in 10.0 mi NE 8.1 mph - N/A   Clear
10:16 PM 71.6 °F 51.8 °F 50% 29.76 in 10.0 mi NE 9.2 mph - N/A   Clear
10:36 PM 71.6 °F 50.0 °F 46% 29.76 in 10.0 mi NE 10.4 mph - N/A   Clear
10:56 PM 69.8 °F 51.8 °F 53% 29.77 in 10.0 mi NE 8.1 mph - N/A   Clear
11:16 PM 69.8 °F 51.8 °F 53% 29.77 in 10.0 mi NE 8.1 mph - N/A   Clear
11:36 PM 68.0 °F 50.0 °F 52% 29.78 in 10.0 mi NE 8.1 mph - N/A   Clear
11:56 PM 66.2 °F 51.8 °F 60% 29.78 in 10.0 mi NE 9.2 mph - N/A   Clear